createdAt,value
2022-12-13T00:02:59.110Z,-0.90
2022-12-13T00:07:00.946Z,-1.00
2022-12-13T00:11:07.124Z,-1.00
2022-12-13T00:15:09.730Z,-1.00
2022-12-13T00:19:11.541Z,-1.00
2022-12-13T00:23:13.440Z,-1.00
2022-12-13T00:27:15.280Z,-1.00
2022-12-13T00:35:41.369Z,-1.00
2022-12-13T00:39:43.254Z,-1.10
2022-12-13T00:43:45.413Z,-1.10
2022-12-13T00:47:47.281Z,-1.20
2022-12-13T00:51:49.692Z,-1.10
2022-12-13T00:55:51.588Z,-1.20
2022-12-13T00:59:53.449Z,-1.20
2022-12-13T01:03:57.764Z,-1.10
2022-12-13T01:07:59.579Z,-1.20
2022-12-13T01:12:06.524Z,-1.20
2022-12-13T01:16:09.729Z,-1.10
2022-12-13T01:20:12.128Z,-1.10
2022-12-13T01:24:14.030Z,-1.00
2022-12-13T01:28:15.831Z,-1.00
2022-12-13T01:32:17.618Z,-1.00
2022-12-13T01:36:27.399Z,-1.00
2022-12-13T01:40:29.921Z,-1.00
2022-12-13T01:44:56.685Z,-1.00
2022-12-13T01:49:19.552Z,-1.00
2022-12-13T01:53:27.530Z,-1.00
2022-12-13T01:57:29.371Z,-1.00
2022-12-13T02:01:31.283Z,-1.10
2022-12-13T02:05:39.673Z,-1.00
2022-12-13T02:09:41.567Z,-1.10
2022-12-13T02:13:43.443Z,-1.10
2022-12-13T02:17:53.225Z,-1.00
2022-12-13T02:22:17.645Z,-1.00
2022-12-13T02:26:59.329Z,-1.00
2022-12-13T02:31:14.177Z,-1.00
2022-12-13T02:35:26.485Z,-1.00
2022-12-13T02:39:35.012Z,-1.00
2022-12-13T02:43:45.513Z,-1.00
2022-12-13T02:47:47.682Z,-1.00
2022-12-13T02:51:50.275Z,-1.00
2022-12-13T02:55:52.102Z,-1.00
2022-12-13T02:59:53.905Z,-1.10
2022-12-13T03:04:16.007Z,-1.10
2022-12-13T03:08:51.999Z,-1.10
2022-12-13T03:13:33.003Z,-1.00
2022-12-13T03:17:46.986Z,-1.00
2022-12-13T03:21:49.610Z,-1.00
2022-12-13T03:25:56.692Z,-1.20
2022-12-13T03:29:58.487Z,-1.30
2022-12-13T03:34:01.175Z,-1.40
2022-12-13T03:38:04.188Z,-1.50
2022-12-13T03:42:06.000Z,-1.60
2022-12-13T03:46:08.745Z,-1.70
2022-12-13T03:50:27.126Z,-1.80
2022-12-13T03:54:29.507Z,-2.00
2022-12-13T03:58:37.813Z,-2.10
2022-12-13T04:02:40.241Z,-2.30
2022-12-13T04:06:42.130Z,-2.40
2022-12-13T04:10:43.942Z,-2.60
2022-12-13T04:14:45.835Z,-2.70
2022-12-13T04:18:47.686Z,-2.80
2022-12-13T04:22:49.492Z,-2.90
2022-12-13T04:26:51.835Z,-3.00
2022-12-13T04:30:54.270Z,-3.00
2022-12-13T04:35:01.097Z,-3.00
2022-12-13T04:39:21.631Z,-3.10
2022-12-13T04:43:24.219Z,-3.20
2022-12-13T04:47:26.142Z,-3.20
2022-12-13T04:51:28.115Z,-3.10
2022-12-13T04:55:30.106Z,-3.10
2022-12-13T04:59:32.037Z,-3.10
2022-12-13T05:03:34.342Z,-3.10
2022-12-13T05:07:36.292Z,-3.10
2022-12-13T05:11:47.692Z,-3.20
2022-12-13T05:16:03.363Z,-3.20
2022-12-13T05:20:05.917Z,-3.30
2022-12-13T05:24:08.306Z,-3.40
2022-12-13T05:28:27.587Z,-3.40
2022-12-13T05:32:43.056Z,-3.50
2022-12-13T05:36:46.114Z,-3.50
2022-12-13T05:40:47.998Z,-3.50
2022-12-13T05:44:53.786Z,-3.70
2022-12-13T05:48:55.662Z,-3.90
2022-12-13T05:52:57.569Z,-4.00
2022-12-13T05:56:59.549Z,-4.10
2022-12-13T06:01:12.856Z,-4.30
2022-12-13T06:05:15.018Z,-4.50
2022-12-13T06:09:16.963Z,-4.60
2022-12-13T06:13:22.051Z,-4.70
2022-12-13T06:17:42.244Z,-4.80
2022-12-13T06:21:55.685Z,-4.90
2022-12-13T06:25:57.832Z,-5.00
2022-12-13T06:30:02.420Z,-5.10
2022-12-13T06:34:14.356Z,-5.20
2022-12-13T06:38:32.121Z,-5.20
2022-12-13T06:42:37.472Z,-5.20
2022-12-13T06:46:47.176Z,-5.30
2022-12-13T06:50:54.979Z,-5.50
2022-12-13T06:54:59.990Z,-5.50
2022-12-13T06:59:15.810Z,-5.70
2022-12-13T07:03:43.385Z,-5.70
2022-12-13T07:08:05.514Z,-5.60
2022-12-13T07:12:19.002Z,-5.50
2022-12-13T07:16:42.231Z,-5.40
2022-12-13T07:25:31.258Z,-5.30
2022-12-13T07:29:56.970Z,-5.20
2022-12-13T07:33:59.021Z,-5.00
2022-12-13T07:38:00.905Z,-4.80
2022-12-13T07:42:02.803Z,-4.80
2022-12-13T07:46:06.077Z,-4.70
2022-12-13T07:50:24.728Z,-4.50
2022-12-13T07:54:30.334Z,-4.40
2022-12-13T07:58:36.607Z,-4.40
2022-12-13T08:02:46.854Z,-4.30
2022-12-13T08:06:57.432Z,-4.10
2022-12-13T08:11:17.675Z,-4.00
2022-12-13T08:15:26.803Z,-3.90
2022-12-13T08:19:28.724Z,-3.90
2022-12-13T08:23:34.515Z,-3.90
2022-12-13T08:27:38.446Z,-3.70
2022-12-13T08:31:48.567Z,-3.50
2022-12-13T08:35:51.974Z,-3.30
2022-12-13T08:39:55.615Z,-3.00
2022-12-13T08:43:57.971Z,-2.90
2022-12-13T08:48:01.499Z,-3.10
2022-12-13T08:52:03.784Z,-3.00
2022-12-13T08:56:10.764Z,-2.90
2022-12-13T09:00:15.760Z,-3.00
2022-12-13T09:04:17.601Z,-2.90
2022-12-13T09:08:35.049Z,-2.70
2022-12-13T09:12:41.558Z,-2.80
2022-12-13T09:16:51.021Z,-2.70
2022-12-13T09:20:53.636Z,-2.70
2022-12-13T09:25:14.667Z,-2.50
2022-12-13T09:29:20.052Z,-2.60
2022-12-13T09:33:29.780Z,-2.30
2022-12-13T09:37:32.807Z,-2.30
2022-12-13T09:41:40.812Z,-2.40
2022-12-13T09:45:45.206Z,-2.40
2022-12-13T09:49:52.245Z,-2.30
2022-12-13T09:53:55.320Z,-2.30
2022-12-13T09:57:57.761Z,-2.30
2022-12-13T10:02:23.299Z,-2.30
2022-12-13T10:06:28.695Z,-2.30
2022-12-13T10:10:30.577Z,-2.20
2022-12-13T10:14:47.816Z,-2.20
2022-12-13T10:18:52.264Z,-2.30
2022-12-13T10:23:52.546Z,-2.40
2022-12-13T10:27:19.132Z,-2.30
2022-12-13T10:31:21.079Z,-2.20
2022-12-13T10:35:34.684Z,-2.20
2022-12-13T10:39:45.675Z,-2.10
2022-12-13T10:43:47.856Z,-2.10
2022-12-13T10:47:49.896Z,-2.00
2022-12-13T10:52:01.804Z,-1.90
2022-12-13T10:56:03.792Z,-1.80
2022-12-13T11:00:33.962Z,-1.80
2022-12-13T11:04:37.640Z,-1.70
2022-12-13T11:08:42.008Z,-1.60
2022-12-13T11:12:44.878Z,-1.50
2022-12-13T11:16:54.458Z,-1.40
2022-12-13T11:21:03.834Z,-1.30
2022-12-13T11:25:25.818Z,-1.30
2022-12-13T11:30:22.828Z,-1.20
2022-12-13T11:34:34.093Z,-1.20
2022-12-13T11:39:00.083Z,-1.20
2022-12-13T11:43:36.133Z,-1.20
2022-12-13T11:47:49.986Z,-1.10
2022-12-13T11:52:30.636Z,-1.00
2022-12-13T11:56:42.392Z,-1.00
2022-12-13T12:01:14.151Z,-1.00
2022-12-13T12:05:36.930Z,-0.90
2022-12-13T12:10:13.943Z,-0.90
2022-12-13T12:14:41.227Z,-0.90
2022-12-13T12:18:43.365Z,-0.90
2022-12-13T12:23:03.960Z,-0.80
2022-12-13T12:27:23.753Z,-0.80
2022-12-13T12:31:50.426Z,-0.80
2022-12-13T12:36:20.286Z,-0.80
2022-12-13T12:41:07.283Z,-0.80
2022-12-13T12:45:54.713Z,-0.70
2022-12-13T12:50:17.173Z,-0.70
2022-12-13T12:54:36.898Z,-0.80
2022-12-13T12:59:22.376Z,-0.70
2022-12-13T13:03:29.173Z,-0.70
2022-12-13T13:07:39.681Z,-0.90
2022-12-13T13:11:43.675Z,-0.90
2022-12-13T13:15:55.680Z,-1.00
2022-12-13T13:20:19.088Z,-0.90
2022-12-13T13:24:34.780Z,-1.00
2022-12-13T13:28:36.694Z,-1.00
2022-12-13T13:32:39.613Z,-0.90
2022-12-13T13:36:49.415Z,-0.90
2022-12-13T13:40:51.568Z,-1.00
2022-12-13T13:45:17.298Z,-0.90
2022-12-13T13:49:25.605Z,-1.00
2022-12-13T13:54:07.019Z,-1.00
2022-12-13T13:58:34.487Z,-1.10
2022-12-13T14:03:34.211Z,-1.10
2022-12-13T14:08:01.161Z,-1.20
2022-12-13T14:12:47.160Z,-1.20
2022-12-13T14:17:35.856Z,-1.20
2022-12-13T14:21:50.071Z,-1.20
2022-12-13T14:26:51.956Z,-1.30
2022-12-13T14:30:58.694Z,-1.40
2022-12-13T14:35:24.846Z,-1.50
2022-12-13T14:39:25.110Z,-1.50
2022-12-13T14:43:30.232Z,-1.60
2022-12-13T14:47:32.172Z,-1.70
2022-12-13T14:51:36.227Z,-1.70
2022-12-13T14:55:38.063Z,-1.80
2022-12-13T14:59:50.794Z,-1.80
2022-12-13T15:03:52.837Z,-1.90
2022-12-13T15:07:54.722Z,-2.00
2022-12-13T15:12:02.875Z,-2.20
2022-12-13T15:16:26.084Z,-2.20
2022-12-13T15:20:31.013Z,-2.30
2022-12-13T15:24:36.390Z,-2.40
2022-12-13T15:28:42.184Z,-2.50
2022-12-13T15:33:05.012Z,-2.60
2022-12-13T15:37:32.860Z,-2.70
2022-12-13T15:41:40.384Z,-2.70
2022-12-13T15:45:45.778Z,-2.80
2022-12-13T15:49:59.418Z,-2.80
2022-12-13T15:54:09.489Z,-2.90
2022-12-13T15:58:34.042Z,-3.00
2022-12-13T16:02:35.818Z,-3.00
2022-12-13T16:06:37.616Z,-3.10
2022-12-13T16:10:39.581Z,-3.10
2022-12-13T16:14:51.543Z,-3.20
2022-12-13T16:19:00.459Z,-3.30
2022-12-13T16:23:09.263Z,-3.30
2022-12-13T16:27:11.239Z,-3.30
2022-12-13T16:31:23.145Z,-3.40
2022-12-13T16:35:25.158Z,-3.50
2022-12-13T16:39:27.207Z,-3.50
2022-12-13T16:43:33.819Z,-3.50
2022-12-13T16:47:44.745Z,-3.60
2022-12-13T16:51:50.222Z,-3.70
2022-12-13T16:55:58.181Z,-3.80
2022-12-13T17:00:01.079Z,-3.70
2022-12-13T17:04:07.310Z,-3.80
2022-12-13T17:08:14.409Z,-3.90
2022-12-13T17:12:16.326Z,-3.80
2022-12-13T17:16:18.235Z,-3.90
2022-12-13T17:20:20.213Z,-4.00
2022-12-13T17:24:22.167Z,-4.10
2022-12-13T17:28:24.033Z,-4.10
2022-12-13T17:32:25.890Z,-4.20
2022-12-13T17:36:27.901Z,-4.30
2022-12-13T17:40:29.762Z,-4.30
2022-12-13T17:44:31.651Z,-4.50
2022-12-13T17:48:39.861Z,-4.50
2022-12-13T17:52:42.761Z,-4.50
2022-12-13T17:56:44.657Z,-4.50
2022-12-13T18:00:46.593Z,-4.50
2022-12-13T18:05:37.458Z,-4.50
2022-12-13T18:09:39.239Z,-4.60
2022-12-13T18:13:41.119Z,-4.70
2022-12-13T18:18:10.146Z,-4.80
2022-12-13T18:22:04.924Z,-4.80
2022-12-13T18:26:25.445Z,-4.90
2022-12-13T18:30:29.512Z,-4.90
2022-12-13T18:34:31.577Z,-5.00
2022-12-13T18:38:36.782Z,-5.00
2022-12-13T18:42:39.114Z,-5.20
2022-12-13T18:46:45.765Z,-5.10
2022-12-13T18:50:50.758Z,-5.10
2022-12-13T18:54:54.394Z,-5.10
2022-12-13T18:58:59.068Z,-5.30
2022-12-13T19:03:01.017Z,-5.30
2022-12-13T19:07:03.080Z,-5.40
2022-12-13T19:11:07.430Z,-5.20
2022-12-13T19:15:10.249Z,-5.10
2022-12-13T19:19:14.908Z,-5.10
2022-12-13T19:23:18.024Z,-5.10
2022-12-13T19:27:21.645Z,-5.20
2022-12-13T19:31:31.139Z,-5.10
2022-12-13T19:35:34.199Z,-5.10
2022-12-13T19:43:59.260Z,-5.10
2022-12-13T19:48:01.153Z,-5.10
2022-12-13T19:52:03.715Z,-5.10
2022-12-13T19:56:13.505Z,-5.20
2022-12-13T20:00:16.165Z,-5.20
2022-12-13T20:04:18.253Z,-5.30
2022-12-13T20:08:20.176Z,-5.20
2022-12-13T20:12:24.543Z,-5.30
2022-12-13T20:16:27.159Z,-5.40
2022-12-13T20:20:47.023Z,-5.40
2022-12-13T20:24:51.082Z,-5.40
2022-12-13T20:28:57.105Z,-5.40
2022-12-13T20:33:00.028Z,-5.40
2022-12-13T20:37:01.952Z,-5.50
2022-12-13T20:41:10.767Z,-5.50
2022-12-13T20:45:12.833Z,-5.50
2022-12-13T20:49:14.660Z,-5.50
2022-12-13T20:53:16.569Z,-5.60
2022-12-13T20:57:18.552Z,-5.60
2022-12-13T21:01:22.217Z,-5.60
2022-12-13T21:05:24.149Z,-5.60
2022-12-13T21:09:26.231Z,-5.60
2022-12-13T21:13:40.214Z,-5.60
2022-12-13T21:17:42.172Z,-5.60
2022-12-13T21:21:44.234Z,-5.70
2022-12-13T21:25:54.006Z,-5.70
2022-12-13T21:29:55.874Z,-5.70
2022-12-13T21:33:59.608Z,-5.70
2022-12-13T21:38:05.322Z,-5.60
2022-12-13T21:42:07.543Z,-5.60
2022-12-13T21:46:12.055Z,-5.50
2022-12-13T21:50:13.977Z,-5.50
2022-12-13T21:54:16.779Z,-5.60
2022-12-13T21:58:36.869Z,-5.60
2022-12-13T22:02:38.976Z,-5.60
2022-12-13T22:06:42.198Z,-5.50
2022-12-13T22:11:02.380Z,-5.50
2022-12-13T22:15:10.097Z,-5.40
2022-12-13T22:19:15.191Z,-5.50
2022-12-13T22:23:17.105Z,-5.40
2022-12-13T22:27:23.402Z,-5.50
2022-12-13T22:31:29.718Z,-5.50
2022-12-13T22:35:33.101Z,-5.50
2022-12-13T22:39:34.940Z,-5.40
2022-12-13T22:43:37.026Z,-5.50
2022-12-13T22:47:38.804Z,-5.40
2022-12-13T22:51:40.907Z,-5.40
2022-12-13T22:55:42.711Z,-5.30
2022-12-13T22:59:44.793Z,-5.40
2022-12-13T23:03:46.863Z,-5.30
2022-12-13T23:07:48.843Z,-5.30
2022-12-13T23:12:09.087Z,-5.40
2022-12-13T23:16:10.910Z,-5.30
2022-12-13T23:20:12.958Z,-5.30
2022-12-13T23:24:14.772Z,-5.40
2022-12-13T23:28:16.694Z,-5.50
2022-12-13T23:32:18.625Z,-5.40
2022-12-13T23:36:22.238Z,-5.30
2022-12-13T23:40:24.053Z,-5.30
2022-12-13T23:44:25.866Z,-5.20
2022-12-13T23:48:28.359Z,-5.20
2022-12-13T23:52:30.539Z,-5.20
2022-12-13T23:56:32.345Z,-5.20
